Terminal Aerodrome Forecast
Issued by NWS

Current Version | Previous Version | Text Only | Print | Product List | Glossary On
Versions: 1 2 3 4 5 6 7 8 9 10 11 12 13 14 15 16 17 18 19 20 21 22 23 24
000
FTUS46 KLOX 060602 AAA
TAFBUR
TAF AMD
KBUR 060602Z 0606/0706 VRB03KT P6SM -SHRA VCTS SCT025 BKN040CB
     FM061000 13004KT P6SM -SHRA SCT025 BKN040
     FM061300 18008KT P6SM -SHRA BKN025 OVC040 PROB30 0619/0621 6SM
      -TSRA OVC025CB
     FM070400 18006KT P6SM -SHRA BKN025 OVC040=

USA.gov is the U.S. government's official web portal to all federal, state and local government web resources and services.